Time;durP1;ratioP1;P1;durP2;ratioP2;P2;SDS_P1;SDS_P2;PMS_P1;PMS_P2;Temp;Humidity;BMP_temperature;BMP_pressure;BME280_temperature;BME280_humidity;BME280_pressure;Samples;Min_cycle;Max_cycle;Signal;HPM_P1;HPM_P2
2022/12/11 00:07:15;;;;;;;18.42;7.68;;;;;;;10.51;84.18;91899.72;6175474;22;1391681;-80
2022/12/11 00:09:40;;;;;;;18.33;7.35;;;;;;;10.45;83.99;91914.47;6203130;23;20001;-79
2022/12/11 00:12:06;;;;;;;17.90;7.80;;;;;;;10.43;84.20;91909.50;6176926;23;20008;-80
2022/12/11 00:14:32;;;;;;;13.85;6.53;;;;;;;10.31;83.80;91892.97;6202787;23;20001;-81
2022/12/11 00:16:57;;;;;;;16.15;7.93;;;;;;;10.10;84.53;91917.34;6203207;23;20257;-80
2022/12/11 00:19:23;;;;;;;19.85;7.15;;;;;;;10.06;84.95;91914.63;6203298;23;20026;-80
2022/12/11 00:21:48;;;;;;;21.67;8.50;;;;;;;10.01;85.34;91917.56;6202949;23;20000;-80
2022/12/11 00:24:13;;;;;;;17.65;9.43;;;;;;;9.95;85.68;91903.81;6203123;23;20229;-81
2022/12/11 00:26:39;;;;;;;18.00;8.32;;;;;;;9.91;85.81;91907.53;6176673;23;20059;-80
2022/12/11 00:29:04;;;;;;;16.73;7.82;;;;;;;9.89;86.01;91885.81;6202706;23;20001;-80
2022/12/11 00:31:30;;;;;;;17.77;7.55;;;;;;;9.87;86.29;91898.72;6203077;23;20302;-80
2022/12/11 00:33:55;;;;;;;10.50;6.28;;;;;;;9.83;86.31;91909.28;6176856;23;20186;-80
2022/12/11 00:36:24;;;;;;;14.30;7.78;;;;;;;9.79;86.82;91903.94;6176633;23;20349;-80
2022/12/11 00:38:50;;;;;;;12.77;6.15;;;;;;;9.78;87.13;91904.28;6202815;23;19997;-81
2022/12/11 00:41:16;;;;;;;12.73;5.45;;;;;;;9.78;87.43;91897.06;6202932;23;20003;-80
2022/12/11 00:43:42;;;;;;;11.80;4.60;;;;;;;9.82;87.29;91876.59;6202915;23;20004;-80
2022/12/11 00:46:08;;;;;;;7.82;4.75;;;;;;;9.84;87.00;91894.88;6202697;23;20043;-80
2022/12/11 00:48:33;;;;;;;19.05;5.30;;;;;;;9.82;86.93;91895.22;6202608;23;19993;-81
2022/12/11 00:50:59;;;;;;;11.63;4.40;;;;;;;9.82;86.93;91899.78;6202638;23;20005;-81
2022/12/11 00:53:24;;;;;;;8.95;5.22;;;;;;;9.85;86.41;91899.09;6202805;23;19997;-80
2022/12/11 00:55:50;;;;;;;11.93;4.95;;;;;;;9.85;86.28;91904.41;6176265;23;20012;-81
2022/12/11 00:58:15;;;;;;;13.13;4.57;;;;;;;9.77;86.35;91884.13;6202603;23;20051;-81
2022/12/11 01:00:42;;;;;;;9.65;4.53;;;;;;;9.80;86.27;91902.03;6202505;23;20048;-81
2022/12/11 01:03:08;;;;;;;13.68;4.78;;;;;;;9.81;86.47;91885.72;6176275;23;19997;-80
2022/12/11 01:05:34;;;;;;;13.57;4.95;;;;;;;9.82;86.72;91889.91;6202578;23;20009;-80
2022/12/11 01:08:00;;;;;;;13.05;6.18;;;;;;;9.88;86.82;91898.38;6196008;23;20013;-79
2022/12/11 01:10:25;;;;;;;13.48;5.82;;;;;;;9.96;86.16;91893.94;6196103;23;20039;-81
2022/12/11 01:12:57;;;;;;;10.23;4.93;;;;;;;9.91;86.35;91878.25;6195918;23;20051;-81
2022/12/11 01:15:26;;;;;;;10.80;5.40;;;;;;;9.98;86.26;91887.13;6195779;23;20226;-80
2022/12/11 01:17:51;;;;;;;14.60;5.78;;;;;;;10.06;85.70;91900.56;6195666;23;19997;-81
2022/12/11 01:20:18;;;;;;;20.35;5.63;;;;;;;10.04;85.91;91903.56;6195773;23;20004;-81
2022/12/11 01:22:43;;;;;;;11.63;5.82;;;;;;;10.00;86.15;91930.13;6195727;23;20000;-81
2022/12/11 01:25:09;;;;;;;11.50;5.00;;;;;;;9.91;87.42;91872.94;6195783;23;20241;-81
2022/12/11 01:27:36;;;;;;;12.73;4.85;;;;;;;9.86;89.48;91915.81;6195600;23;20008;-80
2022/12/11 01:30:02;;;;;;;9.20;4.93;;;;;;;9.83;89.47;91919.94;6195573;23;20035;-81
2022/12/11 01:32:28;;;;;;;6.53;3.95;;;;;;;9.89;90.27;91864.53;6169562;23;20000;-80
2022/12/11 01:34:53;;;;;;;6.75;1.80;;;;;;;10.28;89.77;91848.38;6195818;23;20001;-81
2022/12/11 01:37:19;;;;;;;1.85;0.50;;;;;;;10.81;84.61;91843.00;6195489;23;20020;-80
2022/12/11 01:39:45;;;;;;;0.65;0.40;;;;;;;11.41;80.82;91821.53;6195601;23;20171;-80
2022/12/11 01:42:16;;;;;;;0.17;0.17;;;;;;;11.87;77.92;91752.91;6195683;23;19997;-86
2022/12/11 01:44:42;;;;;;;1.98;0.40;;;;;;;12.07;76.53;91761.41;6169660;23;20008;-86
2022/12/11 01:47:08;;;;;;;1.10;0.40;;;;;;;12.11;76.29;91765.66;6195883;23;20250;-83
2022/12/11 01:49:33;;;;;;;2.20;0.60;;;;;;;12.18;76.65;91811.06;6195433;23;20031;-84
2022/12/11 01:52:06;;;;;;;0.55;0.20;;;;;;;12.24;75.26;91748.16;6195629;23;20294;-81
2022/12/11 01:54:33;;;;;;;0.45;0.20;;;;;;;12.45;72.87;91703.97;6169113;23;20051;-83
2022/12/11 01:57:03;;;;;;;0.20;0.20;;;;;;;12.67;72.54;91768.19;6195472;23;20017;-83
2022/12/11 01:59:33;;;;;;;0.20;0.20;;;;;;;12.61;71.02;91787.25;6195249;23;20004;-82
2022/12/11 02:02:02;;;;;;;0.57;0.20;;;;;;;12.63;68.83;91800.25;6195468;23;20027;-83
2022/12/11 02:04:28;;;;;;;2.42;1.13;;;;;;;12.60;67.08;91788.41;6195454;23;20005;-83
2022/12/11 02:06:54;;;;;;;0.70;0.45;;;;;;;12.54;66.93;91773.88;6195431;23;20064;-83
2022/12/11 02:09:30;;;;;;;0.57;0.30;;;;;;;12.59;66.03;91698.66;6168956;23;20247;-81
2022/12/11 02:12:14;;;;;;;0.30;0.28;;;;;;;12.41;70.83;91700.53;6195956;23;19993;-80
2022/12/11 02:15:07;;;;;;;0.88;0.20;;;;;;;12.14;71.44;91676.78;6195298;23;20004;-84
2022/12/11 02:17:32;;;;;;;2.90;0.60;;;;;;;12.24;71.57;91710.75;6195075;23;20001;-81
2022/12/11 02:20:22;;;;;;;0.38;0.38;;;;;;;12.61;68.20;91696.38;6168353;23;20047;-80
2022/12/11 02:23:11;;;;;;;3.00;0.43;;;;;;;12.87;69.83;91725.88;6168930;23;20001;-83
2022/12/11 02:25:58;;;;;;;2.65;0.60;;;;;;;13.16;68.89;91721.31;6194988;23;20080;-83
2022/12/11 02:28:52;;;;;;;3.63;1.05;;;;;;;13.20;70.13;91709.47;6195578;23;20005;-86
2022/12/11 02:31:36;;;;;;;2.25;0.90;;;;;;;13.29;70.35;91668.19;6162378;23;20015;-86
2022/12/11 02:34:09;;;;;;;1.00;0.80;;;;;;;13.37;69.15;91672.44;6195623;23;20072;-86
2022/12/11 02:36:39;;;;;;;2.15;1.05;;;;;;;13.43;69.83;91641.47;6195364;23;20040;-86
2022/12/11 02:39:08;;;;;;;2.67;1.45;;;;;;;13.54;68.82;91695.00;6195701;23;20001;-86
2022/12/11 02:41:33;;;;;;;4.00;1.98;;;;;;;13.57;68.38;91704.91;6195525;23;20007;-85
2022/12/11 02:44:02;;;;;;;3.03;1.35;;;;;;;13.55;67.02;91724.03;6195187;23;20001;-85
2022/12/11 02:46:29;;;;;;;2.13;1.50;;;;;;;13.55;67.33;91704.53;6195123;23;20016;-85
2022/12/11 02:48:56;;;;;;;2.97;1.20;;;;;;;13.56;65.22;91736.28;6195123;23;20111;-85
2022/12/11 02:51:32;;;;;;;1.15;0.80;;;;;;;13.64;62.66;91699.56;6194832;23;20023;-85
2022/12/11 02:53:58;;;;;;;1.67;0.80;;;;;;;13.74;61.04;91736.28;6195160;23;20008;-84
2022/12/11 02:56:39;;;;;;;1.65;0.60;;;;;;;13.77;59.78;91707.97;6195096;23;20012;-85
2022/12/11 02:59:14;;;;;;;0.35;0.35;;;;;;;13.84;59.82;91703.34;6195080;23;20008;-85
2022/12/11 03:01:40;;;;;;;0.47;0.20;;;;;;;13.90;58.99;91711.78;6194969;23;20039;-86
2022/12/11 03:04:05;;;;;;;0.30;0.30;;;;;;;13.91;60.65;91699.13;6195707;23;20291;-86
2022/12/11 03:06:36;;;;;;;0.10;0.10;;;;;;;13.93;61.15;91691.47;6169459;23;20012;-86
2022/12/11 03:09:04;;;;;;;0.52;0.40;;;;;;;13.95;59.69;91657.06;6194984;23;20023;-87
2022/12/11 03:11:29;;;;;;;0.60;0.30;;;;;;;13.96;60.76;91605.78;6169164;23;20069;-87
2022/12/11 03:13:55;;;;;;;1.17;0.30;;;;;;;14.00;60.72;91686.88;6195621;23;20298;-86
2022/12/11 03:16:35;;;;;;;0.32;0.22;;;;;;;14.14;59.35;91696.75;6194963;23;20067;-85
2022/12/11 03:19:44;;;;;;;1.10;0.30;;;;;;;14.19;58.63;91693.69;6194663;23;20096;-85
2022/12/11 03:22:16;;;;;;;0.52;0.30;;;;;;;14.18;61.20;91696.75;6046662;23;20003;-84
2022/12/11 03:25:21;;;;;;;2.92;0.50;;;;;;;14.17;60.82;91728.16;6046231;23;20019;-83
2022/12/11 03:28:11;;;;;;;0.57;0.40;;;;;;;14.24;59.09;91703.25;6122396;23;19997;-85
2022/12/11 03:30:39;;;;;;;2.60;0.77;;;;;;;14.24;59.08;91728.13;6194443;23;19997;-85
2022/12/11 03:33:30;;;;;;;1.60;0.57;;;;;;;14.32;58.14;91738.84;6194635;23;20238;-85
2022/12/11 03:36:02;;;;;;;5.35;0.57;;;;;;;14.35;59.34;91767.50;6194701;23;20007;-84
2022/12/11 03:38:38;;;;;;;0.45;0.30;;;;;;;14.29;57.34;91753.78;6194802;23;20107;-84
2022/12/11 03:41:06;;;;;;;5.30;0.40;;;;;;;14.39;56.31;91757.56;6194377;23;20001;-83
2022/12/11 03:43:33;;;;;;;1.58;0.57;;;;;;;14.41;56.07;91760.59;6194540;23;20001;-85
2022/12/11 03:45:59;;;;;;;1.73;0.40;;;;;;;14.42;57.14;91764.84;6195050;23;20056;-84
2022/12/11 03:48:29;;;;;;;0.82;0.47;;;;;;;14.42;57.76;91764.84;6194766;23;19997;-84
2022/12/11 03:50:57;;;;;;;2.70;0.55;;;;;;;14.40;56.55;91781.28;6194676;23;20238;-83
2022/12/11 03:53:24;;;;;;;1.55;0.57;;;;;;;14.43;56.84;91763.66;6194559;23;20073;-82
2022/12/11 03:55:50;;;;;;;1.77;0.40;;;;;;;14.47;56.09;91796.59;6194395;23;20009;-82
2022/12/11 03:58:16;;;;;;;1.48;0.47;;;;;;;14.51;55.49;91834.09;6194379;23;20305;-83
2022/12/11 04:00:41;;;;;;;0.60;0.30;;;;;;;14.53;56.11;91837.16;6194539;23;20020;-82
2022/12/11 04:03:13;;;;;;;1.85;0.55;;;;;;;14.54;57.55;91871.63;6194291;23;19993;-82
2022/12/11 04:05:52;;;;;;;2.03;0.70;;;;;;;14.42;58.21;91821.13;6194184;23;20048;-82
2022/12/11 04:08:22;;;;;;;1.75;0.60;;;;;;;14.40;56.54;91823.41;6194408;23;20348;-82
2022/12/11 04:11:33;;;;;;;0.90;0.45;;;;;;;14.41;56.54;91824.94;6194369;23;20009;-83
2022/12/11 04:13:34;;;;;;;1.40;0.60;;;;;;;14.40;56.19;91823.41;6194281;23;20000;-83
2022/12/11 04:15:59;;;;;;;2.40;0.57;;;;;;;14.37;56.97;91829.53;6194353;23;20004;-82
2022/12/11 04:26:36;;;;;;;1.40;0.47;;;;;;;14.36;55.63;91870.91;6194503;23;20004;-82
2022/12/11 04:29:02;;;;;;;1.25;0.60;;;;;;;14.37;55.86;91867.84;6194206;23;20017;-83
2022/12/11 04:31:28;;;;;;;1.42;0.68;;;;;;;14.32;56.62;91897.69;6194546;23;20004;-83
2022/12/11 04:33:54;;;;;;;1.95;0.80;;;;;;;14.35;55.98;91877.38;6194373;23;19997;-83
2022/12/11 04:36:20;;;;;;;2.45;0.80;;;;;;;14.39;56.82;91903.06;6194192;23;20005;-83
2022/12/11 04:38:45;;;;;;;2.65;0.70;;;;;;;14.34;56.21;91873.19;6194239;23;20179;-83
2022/12/11 04:41:13;;;;;;;2.30;0.60;;;;;;;14.33;55.13;91882.38;6194403;23;20024;-86
2022/12/11 04:43:39;;;;;;;4.80;1.10;;;;;;;14.32;54.67;91892.31;6196396;23;20104;-86
2022/12/11 04:46:09;;;;;;;2.15;0.75;;;;;;;14.27;55.96;91890.03;6196520;23;20005;-86
2022/12/11 04:48:35;;;;;;;1.45;0.60;;;;;;;14.18;54.64;91903.81;6196572;23;20294;-85
2022/12/11 04:51:01;;;;;;;4.15;0.93;;;;;;;14.20;55.03;91900.75;6196434;23;20001;-85
2022/12/11 04:53:27;;;;;;;1.40;0.40;;;;;;;14.15;56.29;91893.88;6196760;23;20031;-85
2022/12/11 04:55:53;;;;;;;1.63;0.55;;;;;;;14.14;56.99;91911.06;6196205;23;20088;-85
2022/12/11 04:58:18;;;;;;;2.05;0.65;;;;;;;14.13;55.90;91890.81;6196082;23;20239;-86
2022/12/11 05:00:44;;;;;;;4.75;2.20;;;;;;;14.14;55.78;91961.97;6196316;23;19993;-85
2022/12/11 05:03:09;;;;;;;4.57;0.70;;;;;;;14.15;55.34;91926.03;6196249;23;20298;-86
2022/12/11 05:05:35;;;;;;;3.45;1.15;;;;;;;14.21;54.49;91921.81;6196106;23;20048;-86
2022/12/11 05:08:00;;;;;;;2.30;0.60;;;;;;;14.24;55.25;91918.34;6170166;23;20190;-86
2022/12/11 05:10:26;;;;;;;3.70;0.60;;;;;;;14.21;55.55;91886.97;6196047;23;20152;-84
2022/12/11 05:12:51;;;;;;;2.47;1.02;;;;;;;14.25;55.33;91893.09;6196084;23;20007;-85
2022/12/11 05:15:17;;;;;;;1.73;1.08;;;;;;;14.25;55.36;91919.91;6196031;23;20214;-85
2022/12/11 05:17:42;;;;;;;4.30;0.68;;;;;;;14.30;54.74;91901.91;6195872;23;20039;-85
2022/12/11 05:20:09;;;;;;;3.92;0.90;;;;;;;14.37;54.80;91905.34;6196026;23;19997;-85
2022/12/11 05:22:35;;;;;;;3.53;0.73;;;;;;;14.36;55.25;91906.50;6195621;23;19997;-85
2022/12/11 05:25:00;;;;;;;6.32;2.00;;;;;;;14.35;55.62;91930.97;6196022;23;20049;-84
2022/12/11 05:27:26;;;;;;;3.58;0.65;;;;;;;14.33;55.02;91901.13;6195889;23;20023;-84
2022/12/11 05:29:51;;;;;;;2.40;0.70;;;;;;;14.31;55.57;91904.22;6195825;23;20031;-84
2022/12/11 05:32:17;;;;;;;1.73;0.57;;;;;;;14.28;54.70;91920.28;6195689;23;20001;-84
2022/12/11 05:34:42;;;;;;;2.20;0.80;;;;;;;14.32;55.12;91911.09;6169312;23;20202;-84
2022/12/11 05:37:08;;;;;;;2.28;0.93;;;;;;;14.33;55.42;91898.44;6195840;23;20067;-84
2022/12/11 05:39:34;;;;;;;2.42;0.68;;;;;;;14.32;55.22;91902.28;6195962;23;20202;-84
2022/12/11 05:41:59;;;;;;;2.08;0.45;;;;;;;14.34;55.23;91894.63;6195737;23;20100;-84
2022/12/11 05:44:25;;;;;;;2.45;0.63;;;;;;;14.30;55.70;91888.50;6195705;23;20000;-84
2022/12/11 05:46:50;;;;;;;3.05;0.50;;;;;;;14.33;55.81;91898.44;6195525;23;20147;-84
2022/12/11 05:49:16;;;;;;;2.17;0.73;;;;;;;14.35;56.03;91890.78;6195755;23;20008;-83
2022/12/11 05:51:42;;;;;;;4.32;0.88;;;;;;;14.32;55.76;91891.56;6195537;23;19994;-84
2022/12/11 05:54:09;;;;;;;2.30;1.00;;;;;;;14.35;55.05;91874.72;6195370;23;20010;-83
2022/12/11 05:56:35;;;;;;;2.70;0.90;;;;;;;14.35;55.27;91859.41;6195398;23;20194;-84
2022/12/11 05:59:03;;;;;;;2.72;1.00;;;;;;;14.40;54.80;91866.28;6195509;23;20039;-82
2022/12/11 06:01:37;;;;;;;1.90;0.60;;;;;;;14.37;54.75;91883.13;6195744;23;19997;-83
2022/12/11 06:04:04;;;;;;;3.65;0.82;;;;;;;14.36;55.10;91863.63;6195364;23;20249;-82
2022/12/11 06:06:31;;;;;;;2.85;0.80;;;;;;;14.39;55.50;91886.19;6195453;23;20063;-83
2022/12/11 06:08:57;;;;;;;2.92;0.57;;;;;;;14.36;55.01;91870.91;6195367;23;20194;-83
2022/12/11 06:11:24;;;;;;;6.50;0.70;;;;;;;14.40;54.47;91858.25;6195416;23;20004;-82
2022/12/11 06:13:51;;;;;;;1.27;0.82;;;;;;;14.45;54.58;91847.16;6195305;23;20057;-83
2022/12/11 06:16:16;;;;;;;3.15;0.80;;;;;;;14.48;54.40;91856.34;6195118;23;19996;-83
2022/12/11 06:18:43;;;;;;;4.05;0.65;;;;;;;14.45;54.11;91879.31;6195357;23;20000;-83
2022/12/11 06:21:12;;;;;;;1.08;0.73;;;;;;;14.51;53.75;91893.06;6195125;23;20012;-82
2022/12/11 06:23:38;;;;;;;3.75;0.60;;;;;;;14.50;53.58;91900.34;6194954;23;20051;-82
2022/12/11 06:26:03;;;;;;;2.72;0.57;;;;;;;14.53;53.36;91939.81;6195160;23;20064;-82
2022/12/11 06:28:29;;;;;;;4.68;0.82;;;;;;;14.59;53.56;91938.31;6195343;23;19997;-82
2022/12/11 06:30:58;;;;;;;2.97;0.90;;;;;;;14.56;52.53;91904.22;6195246;23;19997;-83
2022/12/11 06:33:24;;;;;;;2.35;0.82;;;;;;;14.62;53.28;91924.13;6195255;23;20412;-83
2022/12/11 06:35:49;;;;;;;1.08;0.60;;;;;;;14.63;53.52;91939.06;6195010;23;19997;-83
2022/12/11 06:38:15;;;;;;;0.88;0.30;;;;;;;14.63;52.57;91887.34;6195252;23;20283;-83
2022/12/11 06:40:40;;;;;;;0.28;0.28;;;;;;;14.67;51.93;91892.69;6195062;23;20055;-83
2022/12/11 06:43:05;;;;;;;3.33;0.75;;;;;;;14.71;51.98;91880.81;6195081;23;20194;-83
2022/12/11 06:45:31;;;;;;;4.30;1.40;;;;;;;14.74;52.99;91900.75;6195268;23;20039;-83
2022/12/11 06:47:57;;;;;;;2.78;0.98;;;;;;;14.73;52.64;91942.09;6194950;23;20032;-83
2022/12/11 06:50:22;;;;;;;1.75;0.80;;;;;;;14.80;52.57;91899.19;6194825;23;20005;-83
2022/12/11 06:52:48;;;;;;;0.50;0.45;;;;;;;14.77;52.51;91950.91;6195052;23;19997;-83
2022/12/11 06:55:13;;;;;;;1.23;0.63;;;;;;;14.77;52.59;91895.34;6194659;23;20176;-83
2022/12/11 06:57:39;;;;;;;1.05;0.45;;;;;;;14.78;52.80;91918.34;6168591;23;20064;-83
2022/12/11 07:00:05;;;;;;;1.52;0.60;;;;;;;14.80;53.32;91936.75;6194753;23;20099;-83
2022/12/11 07:02:31;;;;;;;2.50;0.80;;;;;;;14.79;54.63;91932.53;6194716;23;20009;-83
2022/12/11 07:04:56;;;;;;;3.80;0.68;;;;;;;14.76;54.76;91942.09;6194529;23;20006;-83
2022/12/11 07:07:22;;;;;;;4.15;0.75;;;;;;;14.79;55.15;91930.59;6194869;23;20012;-84
2022/12/11 07:09:47;;;;;;;1.98;0.68;;;;;;;14.74;54.84;91967.78;6168382;23;20043;-84
2022/12/11 07:12:13;;;;;;;2.38;0.77;;;;;;;14.79;54.46;91930.59;6194407;23;19997;-84
2022/12/11 07:14:38;;;;;;;4.75;1.25;;;;;;;14.86;54.91;91921.78;6194629;23;20048;-84
2022/12/11 07:17:03;;;;;;;2.55;1.10;;;;;;;14.89;54.22;91907.59;6194718;23;20060;-84
2022/12/11 07:19:29;;;;;;;2.20;0.80;;;;;;;14.93;54.54;91945.16;6194961;23;20005;-84
2022/12/11 07:21:55;;;;;;;9.63;0.80;;;;;;;14.94;53.35;91934.03;6194473;23;20295;-84
2022/12/11 07:24:20;;;;;;;1.08;0.60;;;;;;;14.92;54.18;91947.06;6194596;23;19997;-85
2022/12/11 07:26:46;;;;;;;3.55;1.67;;;;;;;14.94;54.26;91947.44;6194477;23;20020;-82
2022/12/11 07:29:11;;;;;;;1.35;0.68;;;;;;;14.99;54.14;91947.03;6194469;23;20039;-82
2022/12/11 07:31:37;;;;;;;3.72;0.70;;;;;;;15.03;53.61;91934.38;6167862;23;20008;-81
2022/12/11 07:34:05;;;;;;;3.47;0.70;;;;;;;15.08;54.23;91972.69;6194426;23;20004;-78
2022/12/11 07:36:32;;;;;;;2.00;0.75;;;;;;;15.16;54.12;91988.41;6194219;23;20008;-79
2022/12/11 07:38:58;;;;;;;2.58;0.70;;;;;;;15.23;54.01;91969.59;6194269;23;19997;-81
2022/12/11 07:41:26;;;;;;;3.58;0.70;;;;;;;15.28;52.40;91986.44;6194223;23;20005;-80
2022/12/11 07:43:52;;;;;;;3.25;0.70;;;;;;;15.34;52.33;91991.03;6194404;23;20001;-82
2022/12/11 07:46:20;;;;;;;2.50;0.65;;;;;;;15.34;52.12;91984.91;6168093;23;20217;-82
2022/12/11 07:48:47;;;;;;;0.88;0.38;;;;;;;15.38;51.83;91991.03;6194605;23;19999;-83
2022/12/11 07:51:16;;;;;;;2.22;0.75;;;;;;;15.45;52.16;91956.88;6194404;23;20206;-83
2022/12/11 07:53:48;;;;;;;3.17;0.55;;;;;;;15.53;52.52;91964.88;6194411;23;19997;-85
2022/12/11 07:56:14;;;;;;;3.85;1.42;;;;;;;15.61;52.15;91966.38;6194452;23;20073;-86
2022/12/11 07:58:40;;;;;;;3.22;1.00;;;;;;;15.64;52.48;91990.53;6194813;23;20256;-84
2022/12/11 08:01:11;;;;;;;5.57;3.20;;;;;;;15.74;52.26;91997.06;6194584;23;20001;-86
2022/12/11 08:03:37;;;;;;;5.72;3.30;;;;;;;15.85;52.31;91997.00;6194486;23;20004;-86
2022/12/11 08:06:03;;;;;;;3.13;1.55;;;;;;;15.94;52.33;92013.47;6194453;23;20008;-85
2022/12/11 08:08:28;;;;;;;3.65;1.27;;;;;;;16.01;51.57;92015.34;6194494;23;20047;-85
2022/12/11 08:10:53;;;;;;;4.55;1.00;;;;;;;16.02;51.16;91998.84;6168517;23;20352;-84
2022/12/11 08:13:19;;;;;;;2.67;0.95;;;;;;;15.94;52.08;91993.91;6194034;23;20279;-80
2022/12/11 08:15:44;;;;;;;5.03;0.80;;;;;;;16.03;53.31;91994.25;6194045;23;20001;-80
2022/12/11 08:18:09;;;;;;;3.08;1.63;;;;;;;16.08;54.34;92006.50;6195595;23;20004;-81
2022/12/11 08:20:37;;;;;;;2.15;0.77;;;;;;;16.05;52.79;92008.81;6169788;23;20005;-82
2022/12/11 08:23:03;;;;;;;2.08;0.88;;;;;;;16.10;52.26;92028.38;6196280;23;20001;-84
2022/12/11 08:25:28;;;;;;;8.20;2.13;;;;;;;16.10;51.64;92006.88;6169851;23;19997;-81
2022/12/11 08:27:54;;;;;;;5.45;2.60;;;;;;;16.09;54.45;92011.47;6196301;23;20230;-81
2022/12/11 08:30:19;;;;;;;8.40;1.00;;;;;;;16.12;54.04;92028.72;6196002;23;20044;-82
2022/12/11 08:32:44;;;;;;;4.05;0.90;;;;;;;16.19;53.81;92005.28;6196026;23;19997;-81
2022/12/11 08:35:10;;;;;;;2.10;0.85;;;;;;;16.31;54.22;91979.09;6196043;23;20001;-82
2022/12/11 08:37:35;;;;;;;1.48;0.70;;;;;;;16.25;52.51;91987.56;6195802;23;20305;-82
2022/12/11 08:40:01;;;;;;;2.15;0.90;;;;;;;16.24;53.08;92015.63;6196043;23;20001;-83
2022/12/11 08:42:26;;;;;;;0.60;0.43;;;;;;;16.14;52.07;92002.22;6169646;23;20366;-83
2022/12/11 08:44:52;;;;;;;1.85;0.57;;;;;;;16.15;54.73;92011.84;6169711;23;20001;-82
2022/12/11 08:47:17;;;;;;;2.38;0.90;;;;;;;16.02;54.38;92006.16;6169522;23;20001;-82
2022/12/11 08:49:43;;;;;;;1.10;0.70;;;;;;;16.00;54.33;92008.47;6169517;23;20238;-82
2022/12/11 08:52:08;;;;;;;3.05;1.05;;;;;;;15.98;54.86;91994.66;6195943;23;20104;-82
2022/12/11 08:54:36;;;;;;;1.92;0.73;;;;;;;16.05;55.39;92005.34;6195941;23;20177;-83
2022/12/11 08:57:01;;;;;;;2.10;0.85;;;;;;;16.00;55.41;92011.16;6169736;23;20294;-83
2022/12/11 08:59:26;;;;;;;0.95;0.60;;;;;;;15.96;54.10;92015.78;6195729;23;20003;-83
2022/12/11 09:01:53;;;;;;;2.58;0.90;;;;;;;16.01;53.90;92020.72;6169401;23;20064;-83
2022/12/11 09:04:19;;;;;;;1.40;0.90;;;;;;;16.10;55.97;92012.25;6195864;23;20042;-84
2022/12/11 09:06:44;;;;;;;2.28;0.80;;;;;;;16.22;55.95;92017.94;6195494;23;20000;-83
2022/12/11 09:09:10;;;;;;;5.22;1.45;;;;;;;16.25;54.64;92011.78;6195447;23;20005;-82
2022/12/11 09:11:36;;;;;;;18.27;7.72;;;;;;;16.32;55.92;92013.66;6195611;23;20085;-83
2022/12/11 09:14:03;;;;;;;15.43;7.18;;;;;;;16.38;55.96;92017.44;6169288;23;20005;-81
2022/12/11 09:16:29;;;;;;;10.40;4.50;;;;;;;16.37;56.40;91999.78;6195347;23;19997;-81
2022/12/11 09:18:56;;;;;;;2.85;1.40;;;;;;;16.34;55.94;91989.81;6195633;23;20015;-82
2022/12/11 09:21:24;;;;;;;7.25;3.80;;;;;;;16.41;55.63;91978.28;6169368;23;20253;-84
2022/12/11 09:23:54;;;;;;;2.70;1.27;;;;;;;16.42;54.45;92006.69;6195651;23;20001;-82
2022/12/11 09:26:20;;;;;;;2.20;1.00;;;;;;;16.44;52.82;91998.97;6195575;23;20000;-84
2022/12/11 09:28:46;;;;;;;4.70;1.50;;;;;;;16.47;52.95;91992.06;6195490;23;20004;-83
2022/12/11 09:31:15;;;;;;;3.53;0.93;;;;;;;16.59;53.00;92015.81;6195516;23;19993;-83
2022/12/11 09:33:40;;;;;;;6.22;1.20;;;;;;;16.55;50.23;92005.06;6195626;23;20008;-83
2022/12/11 09:36:06;;;;;;;10.98;4.57;;;;;;;16.54;50.21;91995.44;6195705;23;19997;-83
2022/12/11 09:38:33;;;;;;;6.72;3.63;;;;;;;16.53;50.16;91980.50;6195716;23;20001;-83
2022/12/11 09:40:59;;;;;;;10.40;2.55;;;;;;;16.61;49.80;91987.34;6195431;23;20063;-83
2022/12/11 09:43:43;;;;;;;4.32;1.55;;;;;;;16.73;49.81;91994.16;6195569;23;20005;-83
2022/12/11 09:46:13;;;;;;;4.03;1.30;;;;;;;16.68;49.96;91986.50;6195487;23;19996;-83
2022/12/11 09:48:43;;;;;;;5.03;1.50;;;;;;;16.66;50.97;91980.75;6195869;23;20021;-82
2022/12/11 09:51:18;;;;;;;5.40;1.40;;;;;;;16.74;51.85;91965.34;6195606;23;20001;-81
2022/12/11 09:53:44;;;;;;;2.60;1.20;;;;;;;16.79;50.05;91972.97;6197472;23;20000;-87
2022/12/11 09:56:16;;;;;;;3.92;1.10;;;;;;;16.84;50.30;91967.97;6200365;23;19997;-81
2022/12/11 09:59:09;;;;;;;2.38;1.08;;;;;;;16.72;49.69;91970.34;6195130;23;20004;-82
2022/12/11 10:02:00;;;;;;;4.40;0.93;;;;;;;16.69;52.58;91955.00;6169844;23;19993;-84
2022/12/11 10:04:47;;;;;;;2.30;1.00;;;;;;;16.75;51.75;91966.84;6195776;23;20211;-86
2022/12/11 10:07:36;;;;;;;4.05;1.33;;;;;;;16.79;50.75;91976.44;6169121;23;20009;-85
2022/12/11 10:10:20;;;;;;;5.82;1.13;;;;;;;16.86;51.47;91980.25;6151592;23;20072;-90
2022/12/11 10:13:12;;;;;;;6.35;1.95;;;;;;;16.97;51.43;91959.38;6195021;23;20008;-83
2022/12/11 10:16:02;;;;;;;11.57;3.47;;;;;;;17.09;51.88;91963.50;6194957;23;20119;-80
2022/12/11 10:18:29;;;;;;;3.40;1.73;;;;;;;17.16;49.85;91979.59;6195204;23;19996;-79
2022/12/11 10:20:55;;;;;;;1.33;0.68;;;;;;;17.15;49.22;91959.22;6195087;23;20009;-79
2022/12/11 10:23:34;;;;;;;1.98;0.90;;;;;;;17.11;50.36;91974.63;6194999;23;20286;-81
2022/12/11 10:26:17;;;;;;;2.85;1.05;;;;;;;16.72;48.44;91960.34;6195468;23;19994;-81
2022/12/11 10:28:43;;;;;;;2.17;0.80;;;;;;;16.65;48.48;91977.31;6194941;23;20283;-79
2022/12/11 10:31:31;;;;;;;4.55;1.08;;;;;;;16.70;50.76;91988.81;6195172;23;20003;-84
2022/12/11 10:34:11;;;;;;;6.22;1.63;;;;;;;16.78;53.33;91980.28;6195052;23;20020;-84
2022/12/11 10:36:39;;;;;;;3.67;1.38;;;;;;;16.81;54.27;91982.22;6195366;23;20005;-81
2022/12/11 10:39:18;;;;;;;3.22;1.10;;;;;;;16.84;54.13;91977.97;6194903;23;19997;-77
2022/12/11 10:41:46;;;;;;;4.05;1.08;;;;;;;16.88;57.64;91959.84;6195182;23;20012;-79
2022/12/11 10:44:22;;;;;;;1.77;0.75;;;;;;;16.89;57.39;91950.59;6195242;23;20074;-77
2022/12/11 10:47:04;;;;;;;3.08;1.35;;;;;;;16.76;57.26;91934.19;6195150;23;20016;-76
2022/12/11 10:49:31;;;;;;;;;;;;;;;16.76;55.98;91936.13;6195531;23;19997;-75
2022/12/11 10:52:00;;;;;;;1.73;1.10;;;;;;;16.69;56.29;91950.41;6194789;23;19904;-76
2022/12/11 10:54:55;;;;;;;1.65;1.00;;;;;;;16.85;54.63;91944.50;6168644;23;20033;-76
2022/12/11 10:57:27;;;;;;;2.10;1.23;;;;;;;16.84;52.94;91967.19;6163062;23;20016;-76
2022/12/11 10:59:54;;;;;;;3.45;0.80;;;;;;;16.70;50.07;91961.91;6194727;23;20008;-76
2022/12/11 11:02:39;;;;;;;1.27;0.75;;;;;;;16.86;50.75;91940.66;6194780;23;20302;-75
2022/12/11 11:05:25;;;;;;;5.70;1.02;;;;;;;16.94;51.05;91949.44;6168757;23;20001;-76
2022/12/11 11:08:21;;;;;;;3.15;1.23;;;;;;;16.97;50.14;91929.78;6168221;23;20009;-76
2022/12/11 11:11:00;;;;;;;3.67;0.82;;;;;;;17.13;52.79;91945.41;6193403;23;20016;-75
2022/12/11 11:13:30;;;;;;;1.83;0.73;;;;;;;17.20;52.25;91934.56;6194286;23;20024;-75
2022/12/11 11:16:01;;;;;;;2.42;1.20;;;;;;;17.28;52.66;91929.84;6194707;23;20009;-75
2022/12/11 11:18:28;;;;;;;4.78;1.88;;;;;;;17.30;52.11;91924.81;6194245;23;19996;-77
2022/12/11 11:20:54;;;;;;;6.72;2.08;;;;;;;17.36;51.89;91925.91;6168357;23;20007;-77
2022/12/11 11:23:21;;;;;;;2.72;1.40;;;;;;;17.35;51.96;91938.63;6194630;23;20012;-77
2022/12/11 11:25:51;;;;;;;1.83;1.23;;;;;;;17.35;51.76;91946.69;6193796;23;19997;-75
2022/12/11 11:28:27;;;;;;;2.22;1.48;;;;;;;17.37;51.90;91954.38;6194299;23;20325;-77
2022/12/11 11:31:00;;;;;;;2.70;1.48;;;;;;;17.41;51.86;91942.41;6194372;23;20008;-76
2022/12/11 11:33:26;;;;;;;5.97;2.22;;;;;;;17.47;51.45;91926.56;6194405;23;20005;-77
2022/12/11 11:35:53;;;;;;;3.97;1.67;;;;;;;17.55;51.47;91938.03;6194455;23;20000;-77
2022/12/11 11:38:23;;;;;;;2.97;1.50;;;;;;;17.61;50.83;91926.38;6193835;23;20048;-77
2022/12/11 11:41:01;;;;;;;2.60;1.50;;;;;;;17.63;50.89;91936.75;6194290;23;20001;-77
2022/12/11 11:43:45;;;;;;;4.13;1.65;;;;;;;17.69;51.79;91934.38;6194644;23;20285;-76
2022/12/11 11:46:40;;;;;;;1.50;1.00;;;;;;;17.41;48.92;91930.88;6194307;23;20024;-77
2022/12/11 11:49:17;;;;;;;2.17;0.98;;;;;;;17.23;49.40;91925.66;6141209;23;20005;-77
2022/12/11 11:52:11;;;;;;;2.70;1.27;;;;;;;17.17;52.91;91913.81;6194203;23;20004;-77
2022/12/11 11:54:51;;;;;;;6.10;1.95;;;;;;;17.08;55.21;91900.09;6194290;23;20001;-77
2022/12/11 11:57:26;;;;;;;4.47;1.75;;;;;;;16.96;54.05;91915.56;6194366;23;19997;-77
2022/12/11 11:59:57;;;;;;;3.13;1.10;;;;;;;16.89;54.21;91931.03;6194323;23;19997;-77